Time;durP1;ratioP1;P1;durP2;ratioP2;P2;SDS_P1;SDS_P2;PMS_P1;PMS_P2;Temp;Humidity;BMP_temperature;BMP_pressure;BME280_temperature;BME280_humidity;BME280_pressure;Samples;Min_cycle;Max_cycle;Signal;HPM_P1;HPM_P2
2021/12/04 00:02:12;;;;;;;55.50;9.53;;;;;;;0.17;100.00;97109.59;5080801;28;20629;-67
2021/12/04 00:04:41;;;;;;;48.30;10.47;;;;;;;0.14;100.00;97102.97;5081615;28;20713;-66
2021/12/04 00:07:09;;;;;;;40.57;9.80;;;;;;;0.13;100.00;97087.41;5090427;28;20677;-67
2021/12/04 00:09:37;;;;;;;43.90;8.90;;;;;;;0.16;100.00;97073.84;5088009;28;20632;-67
2021/12/04 00:12:06;;;;;;;41.13;8.30;;;;;;;0.07;100.00;97062.03;5083263;28;20769;-67
2021/12/04 00:14:35;;;;;;;49.43;8.87;;;;;;;-0.16;100.00;97060.06;5085242;28;20681;-68
2021/12/04 00:17:05;;;;;;;45.47;9.40;;;;;;;0.05;100.00;97066.72;5082896;28;20636;-67
2021/12/04 00:19:32;;;;;;;49.07;8.10;;;;;;;-0.09;100.00;97048.47;5079537;28;20611;-67
2021/12/04 00:21:59;;;;;;;39.57;8.40;;;;;;;-0.09;100.00;97056.31;5084984;28;20641;-67
2021/12/04 00:24:26;;;;;;;50.17;9.53;;;;;;;-0.14;100.00;97052.75;5081707;28;20610;-68
2021/12/04 00:26:53;;;;;;;45.77;9.40;;;;;;;-0.11;100.00;97053.13;5082863;28;20611;-66
2021/12/04 00:29:20;;;;;;;56.50;10.93;;;;;;;-0.06;100.00;97053.28;5083560;28;20605;-68
2021/12/04 00:31:49;;;;;;;56.03;9.70;;;;;;;0.14;100.00;97050.47;5079361;28;20607;-67
2021/12/04 00:34:19;;;;;;;58.33;9.97;;;;;;;0.15;100.00;97051.28;5080575;28;20607;-67
2021/12/04 00:37:03;;;;;;;43.30;8.07;;;;;;;-0.09;100.00;97045.84;5082364;28;20602;-67
2021/12/04 00:50:28;;;;;;;46.57;8.47;;;;;;;-0.18;100.00;97015.66;5080591;28;20667;-65
2021/12/04 00:52:56;;;;;;;49.10;9.00;;;;;;;-0.27;100.00;97013.50;5087098;28;20602;-67
2021/12/04 00:55:23;;;;;;;50.63;8.40;;;;;;;-0.10;100.00;97014.56;5086903;28;20629;-67
2021/12/04 00:57:50;;;;;;;42.13;9.33;;;;;;;-0.20;100.00;97009.03;5081938;28;20636;-67
2021/12/04 01:00:16;;;;;;;48.37;9.40;;;;;;;-0.13;100.00;97010.56;5088630;28;20614;-66
2021/12/04 01:02:43;;;;;;;47.97;9.13;;;;;;;-0.09;100.00;96998.59;5078503;28;20621;-67
2021/12/04 01:05:10;;;;;;;48.20;8.70;;;;;;;-0.04;100.00;97005.84;5078964;28;20603;-67
2021/12/04 01:07:39;;;;;;;47.70;10.53;;;;;;;0.06;100.00;96994.84;5087613;28;20645;-67
2021/12/04 01:10:09;;;;;;;43.73;9.33;;;;;;;0.02;100.00;96988.41;5088541;28;20874;-66
2021/12/04 01:12:36;;;;;;;29.00;7.60;;;;;;;0.04;100.00;96987.16;5085092;28;20631;-67
2021/12/04 01:15:03;;;;;;;42.00;9.80;;;;;;;0.04;100.00;96991.59;5078348;28;20626;-69
2021/12/04 01:17:30;;;;;;;42.90;8.17;;;;;;;0.00;100.00;96973.66;5081740;28;20595;-66
2021/12/04 01:19:57;;;;;;;46.70;8.50;;;;;;;0.17;100.00;96980.97;5080804;28;20587;-66
2021/12/04 01:22:25;;;;;;;36.27;7.33;;;;;;;0.05;100.00;96975.66;5078974;28;20586;-67
2021/12/04 01:24:53;;;;;;;30.43;8.07;;;;;;;0.16;100.00;96969.66;5077907;28;20718;-67
2021/12/04 01:27:19;;;;;;;45.97;8.83;;;;;;;0.16;100.00;96961.78;5079000;28;20654;-66
2021/12/04 01:29:46;;;;;;;35.03;7.63;;;;;;;-0.05;100.00;96957.78;5084110;28;20608;-70
2021/12/04 01:32:13;;;;;;;33.43;9.10;;;;;;;-0.02;100.00;96952.09;5079083;28;20583;-67
2021/12/04 01:34:39;;;;;;;63.73;10.83;;;;;;;0.03;100.00;96950.66;5081528;28;20595;-67
2021/12/04 01:37:06;;;;;;;41.63;8.97;;;;;;;0.17;100.00;96938.97;5081205;28;20614;-67
2021/12/04 01:39:33;;;;;;;53.20;8.47;;;;;;;0.03;100.00;96927.84;5078006;28;20587;-67
2021/12/04 01:42:01;;;;;;;55.10;9.77;;;;;;;0.08;100.00;96929.78;5077911;28;20614;-68
2021/12/04 01:44:28;;;;;;;49.10;9.77;;;;;;;0.11;100.00;96924.09;5081003;28;21268;-67
2021/12/04 01:46:56;;;;;;;47.50;8.07;;;;;;;0.14;100.00;96924.47;5081229;28;20628;-67
2021/12/04 01:49:22;;;;;;;42.57;8.33;;;;;;;0.05;100.00;96927.59;5078793;28;20676;-67
2021/12/04 01:51:49;;;;;;;29.90;7.80;;;;;;;-0.09;100.00;96903.31;5077959;28;20607;-67
2021/12/04 01:54:16;;;;;;;64.63;9.77;;;;;;;-0.08;100.00;96902.31;5079166;28;20650;-67
2021/12/04 01:56:43;;;;;;;56.73;7.50;;;;;;;-0.03;100.00;96902.44;5081092;28;20606;-67
2021/12/04 01:59:11;;;;;;;44.80;8.90;;;;;;;0.09;100.00;96894.66;5083346;28;21069;-67
2021/12/04 02:01:38;;;;;;;53.50;9.53;;;;;;;-0.01;100.00;96890.72;5077658;28;20908;-67
2021/12/04 02:04:05;;;;;;;45.23;8.40;;;;;;;0.08;100.00;96893.03;5077612;28;20629;-68
2021/12/04 02:06:32;;;;;;;43.80;8.70;;;;;;;0.05;100.00;96896.91;5077476;28;20603;-67
2021/12/04 02:08:59;;;;;;;38.93;8.47;;;;;;;0.05;100.00;96890.84;5077395;28;20719;-67
2021/12/04 02:11:26;;;;;;;64.23;10.23;;;;;;;-0.11;100.00;96898.31;5080188;28;20619;-67
2021/12/04 02:13:53;;;;;;;49.23;8.80;;;;;;;-0.03;100.00;96887.50;5080796;28;20628;-67
2021/12/04 02:16:22;;;;;;;46.20;8.77;;;;;;;-0.08;100.00;96879.50;5078726;28;20607;-68
2021/12/04 02:18:50;;;;;;;69.67;9.43;;;;;;;0.06;100.00;96885.41;5077272;28;20607;-66
2021/12/04 02:21:18;;;;;;;33.57;6.13;;;;;;;-0.16;100.00;96866.69;5078689;28;21924;-67
2021/12/04 02:23:45;;;;;;;40.77;7.07;;;;;;;-0.06;100.00;96860.91;5080919;28;20602;-67
2021/12/04 02:26:13;;;;;;;39.50;8.23;;;;;;;-0.07;100.00;96856.69;5079442;28;20621;-68
2021/12/04 02:28:42;;;;;;;49.80;8.70;;;;;;;-0.05;100.00;96855.44;5081877;28;20708;-67
2021/12/04 02:31:09;;;;;;;32.17;7.27;;;;;;;-0.09;100.00;96861.34;5080156;28;20614;-66
2021/12/04 02:33:36;;;;;;;52.57;8.00;;;;;;;0.05;100.00;96856.72;5077228;28;20607;-68
2021/12/04 02:36:07;;;;;;;32.33;7.90;;;;;;;0.10;100.00;96851.59;5077025;28;20602;-67
2021/12/04 02:38:35;;;;;;;56.80;8.33;;;;;;;0.05;100.00;96849.66;5077404;28;21503;-67
2021/12/04 02:41:02;;;;;;;52.77;7.50;;;;;;;-0.01;100.00;96846.09;5077029;28;20607;-66
2021/12/04 02:43:33;;;;;;;52.37;7.97;;;;;;;0.26;100.00;96853.63;5080552;28;20594;-67
2021/12/04 02:46:00;;;;;;;27.80;7.20;;;;;;;0.45;100.00;96855.16;5080661;28;20671;-66
2021/12/04 02:48:27;;;;;;;64.77;9.80;;;;;;;0.28;100.00;96839.22;5077368;28;20639;-67
2021/12/04 02:50:54;;;;;;;37.23;7.53;;;;;;;0.48;100.00;96831.06;5076996;28;20603;-66
2021/12/04 02:53:21;;;;;;;38.80;7.70;;;;;;;0.44;100.00;96829.91;5079050;28;20611;-67
2021/12/04 02:55:53;;;;;;;35.87;7.03;;;;;;;0.79;100.00;96837.84;5080379;28;21177;-67
2021/12/04 02:58:20;;;;;;;51.70;8.10;;;;;;;1.23;100.00;96837.31;5080258;28;21098;-66
2021/12/04 03:00:49;;;;;;;61.20;9.50;;;;;;;1.49;100.00;96839.44;5080486;28;20644;-67
2021/12/04 03:03:18;;;;;;;37.67;6.90;;;;;;;1.00;100.00;96839.94;5078835;28;20611;-67
2021/12/04 03:05:48;;;;;;;48.80;6.70;;;;;;;1.50;100.00;96835.78;5077012;28;20627;-67
2021/12/04 03:08:14;;;;;;;70.30;9.50;;;;;;;1.31;100.00;96834.31;5076816;28;20661;-68
2021/12/04 03:10:41;;;;;;;45.90;7.03;;;;;;;1.30;100.00;96839.81;5080636;28;20628;-67
2021/12/04 03:13:10;;;;;;;39.63;7.77;;;;;;;1.05;100.00;96824.28;5079825;28;20606;-66
2021/12/04 03:15:41;;;;;;;59.67;7.80;;;;;;;0.83;100.00;96820.63;5076984;28;20619;-67
2021/12/04 03:18:07;;;;;;;45.93;7.43;;;;;;;0.86;100.00;96828.84;5077092;28;20603;-66
2021/12/04 03:20:40;;;;;;;51.07;8.43;;;;;;;0.57;100.00;96834.16;5080291;28;20610;-67
2021/12/04 03:23:13;;;;;;;40.43;8.13;;;;;;;0.57;100.00;96819.22;5079833;28;20606;-66
2021/12/04 03:25:40;;;;;;;70.83;8.73;;;;;;;0.37;100.00;96808.22;5076605;28;20649;-68
2021/12/04 03:28:08;;;;;;;43.67;8.70;;;;;;;0.32;100.00;96797.56;5079759;28;20662;-66
2021/12/04 03:30:42;;;;;;;35.17;6.93;;;;;;;0.35;100.00;96799.75;5080248;28;20625;-67
2021/12/04 03:41:21;;;;;;;38.13;8.60;;;;;;;0.20;100.00;96762.63;5082406;28;20599;-66
2021/12/04 03:43:48;;;;;;;58.70;9.63;;;;;;;0.03;100.00;96749.38;5083562;28;20633;-67
2021/12/04 03:46:18;;;;;;;61.83;10.20;;;;;;;0.00;100.00;96749.81;5082088;28;20602;-67
2021/12/04 03:48:51;;;;;;;43.70;9.30;;;;;;;-0.12;100.00;96754.19;5080099;28;20708;-66
2021/12/04 03:51:19;;;;;;;46.93;8.33;;;;;;;-0.23;100.00;96745.28;5081533;28;20606;-67
2021/12/04 03:53:46;;;;;;;64.20;9.60;;;;;;;-0.06;100.00;96732.31;5083390;28;20644;-66
2021/12/04 03:56:15;;;;;;;58.00;10.00;;;;;;;-0.04;100.00;96738.16;5082095;28;20594;-67
2021/12/04 03:58:42;;;;;;;46.00;7.40;;;;;;;-0.05;100.00;96744.41;5084773;28;20614;-66
2021/12/04 04:01:09;;;;;;;48.40;8.03;;;;;;;-0.21;100.00;96756.34;5082440;28;20590;-67
2021/12/04 04:03:37;;;;;;;64.17;9.70;;;;;;;-0.08;100.00;96740.41;5079587;28;20634;-66
2021/12/04 04:06:04;;;;;;;58.67;9.87;;;;;;;-0.02;100.00;96744.78;5079508;28;20606;-67
2021/12/04 04:08:31;;;;;;;40.70;9.60;;;;;;;-0.11;100.00;96738.25;5079409;28;20669;-67
2021/12/04 04:10:58;;;;;;;35.93;7.17;;;;;;;-0.16;100.00;96737.31;5079376;28;21172;-67
2021/12/04 04:13:24;;;;;;;53.60;7.63;;;;;;;-0.11;100.00;96725.13;5082017;28;20718;-67
2021/12/04 04:15:51;;;;;;;32.93;7.83;;;;;;;-0.13;100.00;96716.69;5083019;28;20628;-66
2021/12/04 04:18:18;;;;;;;54.70;7.93;;;;;;;-0.05;100.00;96710.31;5088423;28;20697;-67
2021/12/04 04:20:46;;;;;;;70.47;9.97;;;;;;;0.33;100.00;96712.53;5079218;28;20629;-67
2021/12/04 04:23:12;;;;;;;37.03;7.33;;;;;;;0.55;100.00;96700.44;5080240;28;20606;-67
2021/12/04 04:25:39;;;;;;;55.40;7.77;;;;;;;0.31;100.00;96694.38;5082553;28;20634;-66
2021/12/04 04:28:06;;;;;;;54.00;7.87;;;;;;;0.04;100.00;96687.16;5082453;28;20618;-67
2021/12/04 04:30:33;;;;;;;81.37;11.57;;;;;;;0.10;100.00;96678.38;5082698;28;20598;-67
2021/12/04 04:33:01;;;;;;;55.87;9.30;;;;;;;0.09;100.00;96676.78;5082617;28;20671;-66
2021/12/04 04:35:28;;;;;;;54.07;8.23;;;;;;;0.30;100.00;96674.41;5078438;28;20641;-67
2021/12/04 04:38:03;;;;;;;33.57;5.90;;;;;;;0.14;100.00;96666.41;5078023;28;20686;-66
2021/12/04 04:59:56;;;;;;;30.83;6.30;;;;;;;-0.37;100.00;96648.66;5080329;28;20664;-67
2021/12/04 05:11:04;;;;;;;48.50;6.53;;;;;;;-0.27;100.00;96644.44;5078592;28;20595;-66
2021/12/04 05:13:30;;;;;;;49.13;6.93;;;;;;;-0.31;100.00;96627.53;5081924;28;20613;-66
2021/12/04 05:15:58;;;;;;;29.77;5.53;;;;;;;-0.36;100.00;96637.94;5080545;28;20655;-66
2021/12/04 05:18:36;;;;;;;38.03;7.10;;;;;;;-0.32;100.00;96643.53;5078898;28;20622;-66
2021/12/04 05:21:06;;;;;;;28.90;6.67;;;;;;;-0.25;100.00;96626.63;5078158;28;20615;-67
2021/12/04 05:23:34;;;;;;;33.13;7.03;;;;;;;-0.12;100.00;96634.31;5078318;28;20611;-66
2021/12/04 05:26:03;;;;;;;42.00;5.90;;;;;;;-0.26;100.00;96626.88;5077820;28;20634;-67
2021/12/04 05:28:30;;;;;;;29.03;6.27;;;;;;;-0.50;100.00;96615.56;5084232;28;20664;-67
2021/12/04 05:30:57;;;;;;;66.40;8.47;;;;;;;-0.44;100.00;96617.28;5081429;28;20672;-66
2021/12/04 05:33:24;;;;;;;29.43;7.53;;;;;;;-0.50;100.00;96623.41;5078986;28;20629;-67
2021/12/04 05:35:51;;;;;;;33.97;7.13;;;;;;;-0.40;100.00;96620.25;5078011;28;20607;-66
2021/12/04 05:38:18;;;;;;;58.10;8.30;;;;;;;-0.42;100.00;96609.97;5079437;28;20600;-66
2021/12/04 05:40:46;;;;;;;37.50;7.03;;;;;;;-0.43;100.00;96605.75;5081318;28;20613;-66
2021/12/04 05:43:15;;;;;;;50.60;8.23;;;;;;;-0.53;100.00;96602.91;5080219;28;20606;-65
2021/12/04 05:45:45;;;;;;;55.23;8.43;;;;;;;-0.40;100.00;96601.91;5077813;28;20694;-66
2021/12/04 05:48:15;;;;;;;78.57;8.97;;;;;;;-0.44;100.00;96596.31;5078327;28;20612;-67
2021/12/04 05:51:03;;;;;;;56.80;9.20;;;;;;;-0.39;100.00;96603.47;5081300;28;20621;-66
2021/12/04 05:53:41;;;;;;;48.60;7.83;;;;;;;-0.48;100.00;96604.81;5077629;28;20610;-66
2021/12/04 05:56:08;;;;;;;43.23;7.40;;;;;;;-0.36;100.00;96598.59;5077375;28;20614;-66
2021/12/04 05:58:36;;;;;;;63.60;8.57;;;;;;;-0.38;100.00;96610.31;5084127;28;20632;-66
2021/12/04 06:01:05;;;;;;;34.03;6.47;;;;;;;-0.44;100.00;96608.59;5081036;28;20617;-67
2021/12/04 06:03:33;;;;;;;53.73;8.40;;;;;;;-0.44;100.00;96612.03;5077597;28;20599;-66
2021/12/04 06:06:00;;;;;;;54.57;8.00;;;;;;;-0.46;100.00;96616.69;5077507;28;20587;-67
2021/12/04 06:08:27;;;;;;;28.97;5.90;;;;;;;-0.50;100.00;96609.50;5080308;28;20598;-66
2021/12/04 06:10:55;;;;;;;51.57;10.07;;;;;;;-0.57;100.00;96617.47;5080795;28;21242;-67
2021/12/04 06:13:21;;;;;;;34.63;7.20;;;;;;;-0.55;100.00;96610.97;5078801;28;20727;-67
2021/12/04 06:15:50;;;;;;;36.83;6.37;;;;;;;-0.43;100.00;96615.47;5077437;28;20629;-66
2021/12/04 06:18:16;;;;;;;49.17;8.30;;;;;;;-0.50;100.00;96612.13;5078720;28;20599;-66
2021/12/04 06:23:29;;;;;;;37.30;7.60;;;;;;;-0.40;100.00;96613.16;5077545;28;20613;-67
2021/12/04 06:25:56;;;;;;;53.77;7.43;;;;;;;-0.46;100.00;96597.56;5077040;28;20646;-67
2021/12/04 06:28:23;;;;;;;65.60;9.00;;;;;;;-0.43;100.00;96612.84;5082446;28;20610;-67
2021/12/04 06:30:52;;;;;;;39.07;6.80;;;;;;;-0.52;100.00;96604.47;5080721;28;20606;-67
2021/12/04 06:33:19;;;;;;;33.33;6.20;;;;;;;-0.57;100.00;96612.22;5078802;28;20628;-68
2021/12/04 06:35:47;;;;;;;49.10;8.23;;;;;;;-0.50;100.00;96612.94;5077231;28;20595;-67
2021/12/04 06:38:17;;;;;;;49.47;8.17;;;;;;;-0.53;100.00;96616.00;5078029;28;21127;-67
2021/12/04 06:40:44;;;;;;;46.10;8.30;;;;;;;-0.57;100.00;96612.22;5080664;28;20625;-67
2021/12/04 06:43:11;;;;;;;48.60;9.80;;;;;;;-0.43;100.00;96624.09;5079796;28;20640;-66
2021/12/04 06:45:42;;;;;;;41.73;7.00;;;;;;;-0.54;100.00;96611.78;5077273;28;20661;-67
2021/12/04 06:48:12;;;;;;;48.80;8.50;;;;;;;-0.42;100.00;96624.91;5077332;28;20666;-66
2021/12/04 06:50:43;;;;;;;40.37;7.80;;;;;;;-0.39;100.00;96617.38;5080547;28;20637;-67
2021/12/04 06:53:18;;;;;;;68.67;9.23;;;;;;;-0.43;100.00;96594.47;5079942;28;20621;-68
2021/12/04 06:55:48;;;;;;;38.97;7.70;;;;;;;-0.32;100.00;96597.13;5077179;28;20630;-67
2021/12/04 06:58:15;;;;;;;46.10;10.20;;;;;;;-0.45;100.00;96602.56;5081026;28;20615;-67
2021/12/04 07:00:42;;;;;;;37.27;8.33;;;;;;;-0.37;100.00;96604.84;5080250;28;20629;-66
2021/12/04 07:03:10;;;;;;;64.30;10.10;;;;;;;-0.45;100.00;96596.50;5079836;28;20624;-68
2021/12/04 07:05:37;;;;;;;53.90;8.87;;;;;;;-0.58;100.00;96592.25;5076908;28;20607;-67
2021/12/04 07:08:05;;;;;;;65.73;13.13;;;;;;;-0.62;100.00;96591.13;5078072;28;20599;-67
2021/12/04 07:10:31;;;;;;;45.67;8.43;;;;;;;-0.42;100.00;96586.38;5080642;28;20639;-67
2021/12/04 07:12:58;;;;;;;44.67;9.90;;;;;;;-0.48;100.00;96583.84;5080788;28;20617;-67
2021/12/04 07:15:27;;;;;;;34.00;8.20;;;;;;;-0.41;100.00;96590.59;5083364;28;21092;-67
2021/12/04 07:17:53;;;;;;;58.40;9.23;;;;;;;-0.37;100.00;96585.72;5083863;28;20697;-67
2021/12/04 07:20:21;;;;;;;46.87;8.43;;;;;;;-0.49;100.00;96575.19;5082104;28;20629;-67
2021/12/04 07:22:48;;;;;;;44.07;8.07;;;;;;;-0.41;100.00;96574.88;5080562;28;20630;-68
2021/12/04 07:25:15;;;;;;;53.27;8.40;;;;;;;-0.52;100.00;96570.38;5081417;28;20622;-67
2021/12/04 07:27:42;;;;;;;43.80;9.40;;;;;;;-0.51;100.00;96569.38;5083827;28;20621;-70
2021/12/04 07:30:09;;;;;;;32.17;6.33;;;;;;;-0.55;100.00;96565.59;5083641;28;20680;-67
2021/12/04 07:32:37;;;;;;;43.93;8.47;;;;;;;-0.54;100.00;96564.59;5083967;28;20648;-67
2021/12/04 07:35:04;;;;;;;35.53;7.77;;;;;;;-0.47;100.00;96557.41;5083847;28;20605;-66
2021/12/04 07:37:32;;;;;;;53.57;9.17;;;;;;;-0.42;100.00;96554.91;5080461;28;20603;-66
2021/12/04 07:39:59;;;;;;;31.80;7.27;;;;;;;-0.51;100.00;96548.41;5080165;28;20583;-67
2021/12/04 07:42:26;;;;;;;42.73;9.20;;;;;;;-0.52;100.00;96540.75;5082863;28;20603;-67
2021/12/04 07:44:52;;;;;;;56.90;9.07;;;;;;;-0.39;100.00;96546.59;5083477;28;20618;-68
2021/12/04 07:47:19;;;;;;;45.00;9.10;;;;;;;-0.51;100.00;96550.22;5081419;28;20609;-67
2021/12/04 07:49:46;;;;;;;57.07;10.40;;;;;;;-0.47;100.00;96541.69;5080091;28;20669;-67
2021/12/04 07:52:13;;;;;;;94.37;12.07;;;;;;;-0.44;100.00;96538.59;5080817;28;20591;-67
2021/12/04 07:54:42;;;;;;;36.10;7.33;;;;;;;-0.52;100.00;96532.88;5083256;28;20658;-67
2021/12/04 07:57:09;;;;;;;62.30;9.87;;;;;;;-0.29;100.00;96531.09;5081734;28;20668;-67
2021/12/04 07:59:36;;;;;;;53.83;9.77;;;;;;;-0.31;100.00;96527.88;5082738;28;20594;-68
2021/12/04 08:02:02;;;;;;;43.13;8.37;;;;;;;-0.30;100.00;96529.47;5079702;28;20595;-67
2021/12/04 08:04:29;;;;;;;56.53;10.13;;;;;;;-0.39;100.00;96525.59;5082886;28;20610;-68
2021/12/04 08:06:56;;;;;;;60.83;9.93;;;;;;;-0.45;100.00;96525.72;5083114;28;20602;-66
2021/12/04 08:09:23;;;;;;;63.50;10.53;;;;;;;-0.46;100.00;96517.03;5080616;28;20637;-67
2021/12/04 08:11:50;;;;;;;69.43;10.53;;;;;;;-0.55;100.00;96518.41;5079577;28;20611;-66
2021/12/04 08:14:17;;;;;;;58.50;9.93;;;;;;;-0.43;100.00;96521.81;5081057;28;20603;-68
2021/12/04 08:16:44;;;;;;;55.97;9.70;;;;;;;-0.39;100.00;96522.19;5082881;28;20614;-66
2021/12/04 08:19:11;;;;;;;63.40;11.60;;;;;;;-0.54;100.00;96522.63;5081737;28;20622;-67
2021/12/04 08:21:38;;;;;;;37.37;8.43;;;;;;;-0.50;100.00;96505.44;5079453;28;20591;-67
2021/12/04 08:24:06;;;;;;;48.33;9.30;;;;;;;-0.53;100.00;96503.25;5079324;28;20611;-67
2021/12/04 08:26:33;;;;;;;28.10;7.87;;;;;;;-0.44;100.00;96499.28;5070729;28;20638;-67
2021/12/04 08:29:01;;;;;;;66.93;9.07;;;;;;;-0.42;100.00;96499.84;5081045;28;20598;-67
2021/12/04 08:31:28;;;;;;;49.37;11.03;;;;;;;-0.45;100.00;96495.03;5079649;28;20611;-67
2021/12/04 08:33:54;;;;;;;62.87;10.57;;;;;;;-0.45;100.00;96495.03;5079117;28;20611;-67
2021/12/04 08:36:22;;;;;;;34.10;10.40;;;;;;;-0.37;100.00;96492.06;5081195;28;20626;-66
2021/12/04 08:38:48;;;;;;;39.90;9.50;;;;;;;-0.38;100.00;96490.50;5082361;28;20614;-67
2021/12/04 08:41:15;;;;;;;62.17;12.10;;;;;;;-0.29;100.00;96499.63;5081190;28;20625;-68
2021/12/04 08:43:42;;;;;;;65.90;12.23;;;;;;;-0.31;100.00;96501.66;5079493;28;21008;-66
2021/12/04 08:46:10;;;;;;;49.03;9.80;;;;;;;-0.25;100.00;96492.84;5079188;28;20676;-68
2021/12/04 08:48:37;;;;;;;58.10;10.27;;;;;;;-0.13;100.00;96498.13;5082305;28;20602;-67
2021/12/04 08:51:07;;;;;;;76.13;11.90;;;;;;;-0.09;100.00;96489.53;5082012;28;21098;-67
2021/12/04 08:53:34;;;;;;;75.33;11.87;;;;;;;-0.13;100.00;96492.88;5078783;28;20611;-66
2021/12/04 08:56:00;;;;;;;49.33;9.40;;;;;;;0.00;100.00;96493.41;5078668;28;20591;-68
2021/12/04 08:58:27;;;;;;;74.53;12.13;;;;;;;-0.15;100.00;96489.66;5084458;28;20679;-68
2021/12/04 09:00:56;;;;;;;68.47;12.70;;;;;;;-0.23;100.00;96482.16;5082012;28;20591;-68
2021/12/04 09:03:28;;;;;;;78.00;12.40;;;;;;;-0.06;100.00;96478.59;5079751;28;21238;-67
2021/12/04 09:05:56;;;;;;;68.40;13.07;;;;;;;-0.06;100.00;96481.22;5078379;28;20639;-68
2021/12/04 09:08:24;;;;;;;89.33;16.23;;;;;;;-0.04;100.00;96468.69;5080468;28;20603;-67
2021/12/04 09:10:53;;;;;;;44.23;11.43;;;;;;;-0.09;100.00;96470.38;5081574;28;20646;-66
2021/12/04 09:13:21;;;;;;;61.70;12.67;;;;;;;0.13;100.00;96481.06;5080007;28;20610;-67
2021/12/04 09:15:49;;;;;;;43.73;9.53;;;;;;;-0.07;100.00;96477.00;5077459;28;20611;-67
2021/12/04 09:18:16;;;;;;;85.47;12.83;;;;;;;-0.11;100.00;96470.63;5085201;28;20602;-67
2021/12/04 09:20:45;;;;;;;74.63;12.67;;;;;;;0.10;100.00;96463.16;5077845;28;20595;-68
2021/12/04 09:23:15;;;;;;;81.33;13.43;;;;;;;0.12;100.00;96466.38;5078487;28;21319;-67
2021/12/04 09:25:46;;;;;;;57.60;12.20;;;;;;;0.18;100.00;96468.06;5081375;28;20718;-67
2021/12/04 09:28:22;;;;;;;71.83;12.37;;;;;;;0.34;100.00;96467.34;5081149;28;20614;-68
2021/12/04 10:12:53;;;;;;;81.57;9.57;;;;;;;0.23;100.00;96426.16;5077687;28;20699;-66
2021/12/04 10:18:21;;;;;;;41.47;9.13;;;;;;;0.32;100.00;96422.13;5080763;28;20602;-68
2021/12/04 10:21:03;;;;;;;22.40;8.20;;;;;;;0.14;100.00;96427.53;5077475;28;20607;-68
2021/12/04 10:34:43;;;;;;;39.43;10.20;;;;;;;0.37;100.00;96401.22;5065617;28;20624;-67
2021/12/04 10:37:12;;;;;;;76.67;13.90;;;;;;;0.33;100.00;96400.09;5077572;28;20614;-66
2021/12/04 10:39:39;;;;;;;59.17;10.43;;;;;;;0.58;100.00;96391.88;5080461;28;20650;-66
2021/12/04 10:42:13;;;;;;;33.10;9.03;;;;;;;0.53;100.00;96389.94;5081958;28;20617;-66
2021/12/04 10:44:41;;;;;;;43.40;8.70;;;;;;;0.51;100.00;96376.25;5072879;28;20622;-66
2021/12/04 10:47:12;;;;;;;57.50;11.93;;;;;;;0.43;100.00;96372.16;5072796;28;20611;-67
2021/12/04 10:49:49;;;;;;;52.80;9.57;;;;;;;0.49;100.00;96363.38;5072838;28;20620;-66
2021/12/04 10:52:24;;;;;;;66.40;11.73;;;;;;;0.61;100.00;96373.00;5072601;28;20717;-67
2021/12/04 10:55:10;;;;;;;68.90;11.97;;;;;;;0.62;100.00;96369.34;5072735;28;20653;-68
2021/12/04 11:00:35;;;;;;;37.93;9.00;;;;;;;0.50;100.00;96356.25;5083476;28;20606;-68
2021/12/04 11:03:17;;;;;;;57.10;11.50;;;;;;;0.60;100.00;96355.63;5084315;28;20632;-67
2021/12/04 11:06:08;;;;;;;65.97;11.93;;;;;;;0.67;100.00;96353.66;5072671;28;20611;-67
2021/12/04 11:22:25;;;;;;;54.83;9.80;;;;;;;0.74;100.00;96335.94;5081952;28;20677;-67
2021/12/04 11:25:27;;;;;;;57.67;9.80;;;;;;;0.63;100.00;96324.44;5083865;28;21167;-66
2021/12/04 11:36:43;;;;;;;49.97;11.07;;;;;;;0.77;100.00;96309.97;5082204;28;20620;-67
2021/12/04 11:42:02;;;;;;;29.13;9.83;;;;;;;0.64;100.00;96299.78;5074904;28;21232;-67
2021/12/04 11:44:31;;;;;;;66.43;11.80;;;;;;;0.59;100.00;96291.81;5080968;28;20607;-67
2021/12/04 11:46:59;;;;;;;34.47;8.57;;;;;;;0.64;100.00;96291.91;5080499;28;20703;-67
2021/12/04 11:49:34;;;;;;;33.50;9.83;;;;;;;0.66;100.00;96281.94;5083057;28;20633;-66
2021/12/04 11:52:07;;;;;;;32.93;10.27;;;;;;;0.82;100.00;96290.84;5083869;28;20655;-68
2021/12/04 11:54:45;;;;;;;37.20;8.80;;;;;;;0.76;100.00;96282.09;5079430;28;20591;-67
2021/12/04 11:57:14;;;;;;;37.63;9.93;;;;;;;0.69;100.00;96270.16;5080842;28;20682;-68
2021/12/04 11:59:44;;;;;;;44.47;9.60;;;;;;;0.69;100.00;96280.66;5087074;28;20602;-67
2021/12/04 12:02:24;;;;;;;34.27;8.80;;;;;;;0.76;100.00;96276.84;5080494;28;20636;-68
2021/12/04 12:04:54;;;;;;;17.50;6.40;;;;;;;0.75;100.00;96269.19;5083599;28;20602;-67
2021/12/04 12:07:24;;;;;;;42.27;8.60;;;;;;;0.71;100.00;96262.84;5081107;28;20716;-67
2021/12/04 12:10:04;;;;;;;86.93;12.10;;;;;;;0.70;100.00;96262.03;5079405;28;20611;-66
2021/12/04 12:12:34;;;;;;;28.70;6.70;;;;;;;0.66;100.00;96253.03;5083349;28;20606;-67
2021/12/04 12:15:05;;;;;;;25.10;8.07;;;;;;;0.69;100.00;96264.91;5083269;28;20614;-66
2021/12/04 12:17:37;;;;;;;30.63;7.10;;;;;;;0.71;100.00;96260.22;5080049;28;20653;-67
2021/12/04 12:20:07;;;;;;;38.83;11.00;;;;;;;0.66;100.00;96257.50;5079887;28;20610;-66
2021/12/04 12:22:39;;;;;;;30.33;10.00;;;;;;;0.67;100.00;96243.34;5071338;28;20630;-67
2021/12/04 12:25:21;;;;;;;27.87;8.13;;;;;;;0.68;100.00;96231.81;5070180;28;20729;-66
2021/12/04 12:33:40;;;;;;;48.70;11.27;;;;;;;0.74;100.00;96217.69;5045421;28;20609;-68
2021/12/04 12:36:10;;;;;;;59.13;10.70;;;;;;;0.60;100.00;96232.19;5037221;28;20645;-64
2021/12/04 12:38:47;;;;;;;40.23;11.00;;;;;;;0.63;100.00;96216.75;5061317;28;20618;-64
2021/12/04 12:41:24;;;;;;;35.83;9.50;;;;;;;0.60;100.00;96222.50;5081722;28;21166;-66
2021/12/04 12:44:07;;;;;;;12.10;7.10;;;;;;;0.63;100.00;96219.38;5079385;28;20587;-67
2021/12/04 12:46:40;;;;;;;36.50;8.83;;;;;;;0.65;100.00;96217.28;5079429;28;21477;-62
2021/12/04 12:49:21;;;;;;;68.60;12.80;;;;;;;0.72;100.00;96219.75;5078310;28;20625;-63
2021/12/04 12:51:55;;;;;;;25.43;8.10;;;;;;;0.72;100.00;96212.69;5082639;28;20654;-63
2021/12/04 12:54:28;;;;;;;42.87;9.23;;;;;;;0.81;100.00;96216.47;5080485;28;20608;-62
2021/12/04 12:57:01;;;;;;;34.43;9.50;;;;;;;0.80;100.00;96212.28;5078800;28;20625;-62
2021/12/04 12:59:41;;;;;;;24.77;6.60;;;;;;;0.72;100.00;96217.94;5087120;28;20608;-64
2021/12/04 13:13:31;;;;;;;51.67;12.07;;;;;;;0.88;100.00;96198.72;5080460;28;20597;-66
2021/12/04 13:16:04;;;;;;;18.97;8.80;;;;;;;0.77;100.00;96194.38;5078544;28;20611;-67
2021/12/04 13:18:32;;;;;;;28.77;11.53;;;;;;;0.77;100.00;96204.09;5081968;28;20606;-66
2021/12/04 13:21:03;;;;;;;35.23;10.40;;;;;;;0.71;100.00;96191.91;5081908;28;21492;-66
2021/12/04 13:23:29;;;;;;;28.73;10.90;;;;;;;0.73;100.00;96198.50;5078923;28;20611;-68
2021/12/04 13:25:59;;;;;;;48.97;13.10;;;;;;;0.75;100.00;96193.81;5078103;28;20662;-66
2021/12/04 13:28:28;;;;;;;80.87;10.20;;;;;;;0.73;100.00;96187.19;5083638;28;20659;-65
2021/12/04 13:30:55;;;;;;;56.00;12.00;;;;;;;0.83;100.00;96187.34;5081499;28;20669;-65
2021/12/04 13:33:22;;;;;;;37.27;11.97;;;;;;;0.89;100.00;96186.38;5079524;28;20609;-65
2021/12/04 13:35:48;;;;;;;34.50;9.50;;;;;;;0.92;100.00;96191.94;5078206;28;20603;-66
2021/12/04 13:38:21;;;;;;;62.47;11.37;;;;;;;0.84;100.00;96197.59;5079159;28;21138;-66
2021/12/04 13:40:49;;;;;;;31.93;10.37;;;;;;;0.91;100.00;96190.34;5081909;28;20599;-66
2021/12/04 13:43:17;;;;;;;39.03;10.50;;;;;;;0.87;100.00;96197.09;5080209;28;20605;-66
2021/12/04 13:45:44;;;;;;;19.50;9.53;;;;;;;0.92;100.00;96194.56;5078177;28;20611;-65
2021/12/04 13:48:11;;;;;;;41.33;9.43;;;;;;;0.85;100.00;96196.56;5078587;28;20603;-67
2021/12/04 13:50:46;;;;;;;30.63;10.50;;;;;;;0.83;100.00;96188.16;5081458;28;20634;-66
2021/12/04 13:53:20;;;;;;;43.23;11.70;;;;;;;0.87;100.00;96183.16;5080381;28;20618;-66
2021/12/04 13:55:51;;;;;;;30.97;9.57;;;;;;;0.81;100.00;96179.69;5077959;28;20706;-66
2021/12/04 13:58:17;;;;;;;91.37;14.00;;;;;;;0.81;100.00;96174.44;5082191;28;20602;-66
2021/12/04 14:00:44;;;;;;;100.50;13.80;;;;;;;0.87;100.00;96178.72;5081150;28;20636;-66